createdAt,value
2018-05-27T00:00:33.700Z,71.62
2018-05-27T00:03:02.096Z,71.68
2018-05-27T00:05:36.979Z,71.57
2018-05-27T00:08:05.350Z,71.46
2018-05-27T00:10:33.716Z,71.23
2018-05-27T00:13:02.104Z,70.82
2018-05-27T00:15:36.700Z,71.07
2018-05-27T00:18:04.852Z,71.77
2018-05-27T00:20:33.232Z,72.31
2018-05-27T00:23:01.614Z,71.98
2018-05-27T00:25:30.079Z,71.67
2018-05-27T00:27:58.473Z,71.47
2018-05-27T00:30:31.496Z,71.72
2018-05-27T00:32:59.977Z,72.43
2018-05-27T00:35:32.287Z,72.99
2018-05-27T00:38:01.265Z,73.39
2018-05-27T00:40:36.001Z,73.61
2018-05-27T00:43:04.371Z,73.90
2018-05-27T00:45:32.763Z,73.89
2018-05-27T00:48:01.149Z,74.57
2018-05-27T00:50:29.553Z,75.28
2018-05-27T00:52:58.190Z,75.75
2018-05-27T00:55:31.923Z,76.00
2018-05-27T00:58:00.305Z,76.60
2018-05-27T01:00:29.310Z,76.90
2018-05-27T01:02:57.716Z,76.74
2018-05-27T01:05:31.444Z,76.48
2018-05-27T01:07:59.880Z,76.12
2018-05-27T01:10:32.268Z,75.67
2018-05-27T01:13:00.650Z,75.36
2018-05-27T01:15:29.273Z,75.51
2018-05-27T01:17:57.658Z,76.07
2018-05-27T01:20:28.602Z,76.46
2018-05-27T01:22:58.219Z,76.81
2018-05-27T01:25:36.666Z,76.80
2018-05-27T01:28:04.861Z,76.91
2018-05-27T01:30:33.325Z,76.74
2018-05-27T01:33:01.747Z,76.91
2018-05-27T01:35:30.360Z,76.80
2018-05-27T01:37:58.437Z,76.46
2018-05-27T01:40:27.223Z,76.00
2018-05-27T01:42:55.625Z,76.21
2018-05-27T01:45:27.033Z,76.02
2018-05-27T01:47:55.446Z,75.73
2018-05-27T01:50:23.920Z,75.52
2018-05-27T01:52:52.303Z,75.25
2018-05-27T01:55:25.776Z,75.13
2018-05-27T01:57:54.207Z,75.35
2018-05-27T02:00:30.930Z,75.72
2018-05-27T02:02:59.350Z,76.12
2018-05-27T02:05:27.738Z,76.32
2018-05-27T02:07:56.149Z,76.40
2018-05-27T02:10:26.041Z,76.46
2018-05-27T02:12:54.441Z,76.35
2018-05-27T02:15:32.112Z,76.08
2018-05-27T02:18:00.504Z,75.86
2018-05-27T02:20:28.888Z,75.73
2018-05-27T02:22:57.273Z,75.59
2018-05-27T02:25:25.731Z,75.76
2018-05-27T02:27:54.149Z,75.97
2018-05-27T02:30:28.734Z,76.33
2018-05-27T02:32:57.126Z,75.91
2018-05-27T02:35:28.063Z,75.96
2018-05-27T02:37:56.494Z,75.90
2018-05-27T02:40:35.073Z,76.05
2018-05-27T02:43:03.451Z,76.30
2018-05-27T02:45:31.876Z,76.19
2018-05-27T02:48:00.281Z,76.18
2018-05-27T02:50:28.702Z,76.23
2018-05-27T02:52:57.092Z,76.83
2018-05-27T02:55:30.810Z,77.17
2018-05-27T02:57:59.197Z,77.50
2018-05-27T03:00:33.852Z,77.26
2018-05-27T03:03:02.243Z,77.02
2018-05-27T03:05:30.975Z,76.99
2018-05-27T03:07:59.370Z,76.78
2018-05-27T03:10:27.952Z,76.51
2018-05-27T03:12:56.356Z,76.32
2018-05-27T03:15:30.136Z,75.90
2018-05-27T03:17:58.520Z,76.95
2018-05-27T03:20:26.910Z,77.77
2018-05-27T03:22:55.317Z,78.12
2018-05-27T03:25:33.836Z,78.43
2018-05-27T03:28:02.243Z,78.54
2018-05-27T03:30:34.053Z,78.58
2018-05-27T03:33:02.455Z,78.65
2018-05-27T03:35:30.873Z,78.68
2018-05-27T03:37:59.426Z,78.61
2018-05-27T03:40:29.717Z,78.58
2018-05-27T03:42:58.105Z,78.75
2018-05-27T03:45:32.686Z,78.82
2018-05-27T03:48:01.087Z,79.01
2018-05-27T03:50:29.526Z,78.92
2018-05-27T03:52:57.920Z,78.48
2018-05-27T03:55:26.310Z,78.03
2018-05-27T03:57:54.689Z,78.02
2018-05-27T04:00:36.254Z,78.11
2018-05-27T04:03:04.636Z,77.98
2018-05-27T04:08:36.187Z,77.38
2018-05-27T04:11:04.589Z,77.20
2018-05-27T04:13:32.994Z,76.95
2018-05-27T04:16:01.567Z,76.48
2018-05-27T04:18:29.948Z,76.05
2018-05-27T04:20:58.338Z,75.48
2018-05-27T04:23:26.738Z,74.97
2018-05-27T04:25:55.137Z,74.75
2018-05-27T04:28:23.981Z,74.37
2018-05-27T04:30:52.541Z,73.91
2018-05-27T04:33:20.943Z,73.48
2018-05-27T04:35:49.362Z,73.07
2018-05-27T04:38:17.756Z,73.20
2018-05-27T04:40:46.157Z,73.47
2018-05-27T04:43:14.562Z,73.38
2018-05-27T04:45:42.954Z,73.08
2018-05-27T04:48:11.336Z,72.89
2018-05-27T04:50:39.722Z,72.73
2018-05-27T04:53:08.107Z,72.56
2018-05-27T04:55:36.486Z,72.29
2018-05-27T04:58:04.886Z,72.43
2018-05-27T05:00:33.277Z,72.11
2018-05-27T05:03:01.724Z,71.99
2018-05-27T05:05:30.125Z,71.64
2018-05-27T05:07:58.538Z,71.89
2018-05-27T05:10:26.992Z,72.17
2018-05-27T05:12:55.402Z,72.00
2018-05-27T05:15:23.880Z,71.87
2018-05-27T05:17:52.299Z,72.20
2018-05-27T05:20:25.414Z,71.73
2018-05-27T05:22:54.201Z,71.50
2018-05-27T05:25:26.677Z,71.23
2018-05-27T05:27:55.101Z,70.87
2018-05-27T05:30:23.496Z,70.59
2018-05-27T05:32:51.878Z,70.33
2018-05-27T05:35:20.317Z,70.41
2018-05-27T05:37:48.711Z,70.26
2018-05-27T05:40:17.184Z,70.24
2018-05-27T05:42:45.576Z,70.00
2018-05-27T05:45:13.998Z,69.77
2018-05-27T05:47:42.412Z,69.34
2018-05-27T05:50:10.887Z,69.09
2018-05-27T05:52:39.271Z,68.40
2018-05-27T05:55:07.656Z,68.62
2018-05-27T05:57:36.069Z,68.19
2018-05-27T06:00:03.894Z,67.81
2018-05-27T06:02:32.284Z,67.39
2018-05-27T06:05:00.703Z,67.25
2018-05-27T06:07:29.094Z,67.12
2018-05-27T06:09:57.508Z,66.50
2018-05-27T06:12:25.911Z,66.37
2018-05-27T06:14:54.331Z,66.37
2018-05-27T06:17:22.721Z,65.52
2018-05-27T06:19:51.131Z,65.64
2018-05-27T06:22:19.517Z,65.07
2018-05-27T06:24:47.920Z,65.04
2018-05-27T06:27:16.309Z,64.41
2018-05-27T06:29:44.723Z,64.64
2018-05-27T06:32:13.121Z,63.39
2018-05-27T06:34:41.512Z,63.84
2018-05-27T06:37:09.914Z,64.19
2018-05-27T06:39:38.289Z,64.78
2018-05-27T06:42:06.668Z,62.70
2018-05-27T06:44:35.099Z,63.54
2018-05-27T06:47:03.479Z,62.76
2018-05-27T06:49:31.854Z,63.21
2018-05-27T06:52:00.239Z,63.22
2018-05-27T06:54:28.906Z,63.01
2018-05-27T06:56:57.281Z,63.26
2018-05-27T06:59:25.680Z,63.15
2018-05-27T07:01:54.061Z,63.67
2018-05-27T07:04:22.448Z,63.75
2018-05-27T07:06:51.029Z,61.52
2018-05-27T07:09:19.401Z,62.13
2018-05-27T07:11:47.799Z,62.12
2018-05-27T07:14:16.173Z,61.29
2018-05-27T07:16:44.555Z,60.10
2018-05-27T07:19:12.929Z,60.55
2018-05-27T07:21:41.419Z,60.99
2018-05-27T07:24:09.910Z,60.60
2018-05-27T07:26:38.485Z,60.48
2018-05-27T07:29:06.868Z,60.66
2018-05-27T07:31:35.286Z,60.14
2018-05-27T07:34:03.680Z,60.22
2018-05-27T07:36:32.064Z,59.78
2018-05-27T07:39:00.449Z,58.62
2018-05-27T07:41:28.818Z,59.43
2018-05-27T07:43:57.204Z,59.05
2018-05-27T07:46:25.599Z,59.64
2018-05-27T07:48:53.972Z,59.79
2018-05-27T07:51:22.380Z,59.69
2018-05-27T07:53:50.748Z,60.64
2018-05-27T07:56:19.130Z,60.64
2018-05-27T07:58:47.536Z,59.74
2018-05-27T08:01:15.977Z,58.13
2018-05-27T08:03:44.365Z,57.91
2018-05-27T08:06:12.754Z,57.64
2018-05-27T08:08:41.146Z,56.90
2018-05-27T08:11:09.529Z,57.75
2018-05-27T08:13:37.949Z,57.86
2018-05-27T08:16:06.429Z,58.43
2018-05-27T08:18:35.179Z,58.53
2018-05-27T08:21:03.591Z,57.97
2018-05-27T08:23:31.975Z,57.21
2018-05-27T08:26:00.373Z,55.52
2018-05-27T08:28:28.760Z,54.97
2018-05-27T08:30:57.165Z,54.29
2018-05-27T08:33:25.545Z,54.37
2018-05-27T08:35:53.726Z,55.13
2018-05-27T08:38:22.117Z,53.53
2018-05-27T08:40:50.495Z,53.50
2018-05-27T08:43:18.877Z,54.21
2018-05-27T08:45:47.248Z,53.80
2018-05-27T08:48:15.637Z,53.80
2018-05-27T08:50:44.022Z,54.24
2018-05-27T08:53:12.396Z,53.86
2018-05-27T08:55:40.769Z,53.68
2018-05-27T08:58:09.244Z,51.77
2018-05-27T09:00:37.640Z,52.32
2018-05-27T09:03:05.734Z,52.17
2018-05-27T09:05:34.105Z,51.37
2018-05-27T09:08:02.482Z,50.48
2018-05-27T09:10:30.906Z,50.88
2018-05-27T09:12:59.273Z,49.75
2018-05-27T09:15:27.731Z,50.27
2018-05-27T09:17:56.114Z,49.92
2018-05-27T09:20:24.580Z,48.28
2018-05-27T09:22:52.956Z,48.86
2018-05-27T09:25:21.709Z,47.50
2018-05-27T09:27:50.133Z,46.41
2018-05-27T09:30:18.765Z,46.51
2018-05-27T09:32:47.154Z,47.77
2018-05-27T09:35:15.642Z,47.78
2018-05-27T09:37:44.017Z,46.02
2018-05-27T09:40:12.440Z,45.39
2018-05-27T09:42:40.818Z,46.39
2018-05-27T09:45:09.246Z,47.29
2018-05-27T09:47:37.633Z,46.82
2018-05-27T09:50:06.029Z,45.81
2018-05-27T09:52:34.410Z,46.21
2018-05-27T09:55:02.779Z,44.88
2018-05-27T09:57:31.158Z,43.84
2018-05-27T09:59:59.639Z,43.42
2018-05-27T10:02:28.150Z,43.28
2018-05-27T10:04:56.538Z,43.67
2018-05-27T10:07:24.916Z,42.29
2018-05-27T10:09:53.289Z,42.29
2018-05-27T10:12:21.704Z,42.54
2018-05-27T10:14:50.083Z,43.20
2018-05-27T10:17:18.459Z,43.58
2018-05-27T10:19:46.844Z,43.18
2018-05-27T10:22:14.977Z,40.48
2018-05-27T10:24:43.970Z,41.47
2018-05-27T10:27:12.356Z,40.73
2018-05-27T10:29:40.751Z,41.72
2018-05-27T10:32:09.138Z,41.84
2018-05-27T10:34:37.538Z,42.06
2018-05-27T10:37:05.695Z,41.49
2018-05-27T10:39:34.069Z,40.37
2018-05-27T10:42:02.476Z,39.57
2018-05-27T10:44:30.868Z,39.91
2018-05-27T10:46:59.245Z,40.36
2018-05-27T10:49:27.629Z,39.81
2018-05-27T10:51:56.012Z,40.40
2018-05-27T10:54:24.404Z,39.50
2018-05-27T10:56:52.793Z,39.33
2018-05-27T10:59:21.171Z,40.49
2018-05-27T11:01:49.538Z,39.02
2018-05-27T11:04:17.930Z,38.56
2018-05-27T11:06:46.294Z,39.32
2018-05-27T11:09:14.687Z,40.66
2018-05-27T11:11:43.113Z,39.46
2018-05-27T11:14:11.517Z,39.90
2018-05-27T11:16:39.896Z,40.50
2018-05-27T11:19:08.256Z,41.24
2018-05-27T11:21:36.641Z,41.79
2018-05-27T11:24:05.057Z,41.38
2018-05-27T11:26:33.542Z,40.44
2018-05-27T11:29:01.924Z,39.69
2018-05-27T11:31:30.334Z,38.25
2018-05-27T11:33:58.733Z,38.85
2018-05-27T11:36:27.109Z,39.53
2018-05-27T11:38:55.540Z,39.38
2018-05-27T11:41:23.917Z,40.22
2018-05-27T11:43:52.309Z,37.84
2018-05-27T11:46:20.709Z,38.83
2018-05-27T11:48:49.080Z,38.51
2018-05-27T11:51:17.469Z,38.99
2018-05-27T11:53:45.884Z,39.30
2018-05-27T11:56:14.448Z,39.48
2018-05-27T11:58:42.889Z,38.91
2018-05-27T12:01:11.262Z,40.31
2018-05-27T12:03:39.645Z,40.40
2018-05-27T12:06:08.032Z,39.43
2018-05-27T12:08:36.422Z,39.70
2018-05-27T12:11:04.787Z,40.00
2018-05-27T12:13:33.168Z,38.99
2018-05-27T12:16:01.568Z,39.48
2018-05-27T12:18:29.797Z,40.24
2018-05-27T12:20:58.169Z,39.93
2018-05-27T12:23:26.554Z,40.53
2018-05-27T12:25:54.938Z,39.63
2018-05-27T12:28:23.339Z,39.78
2018-05-27T12:30:51.741Z,40.71
2018-05-27T12:33:20.117Z,41.15
2018-05-27T12:35:48.529Z,40.80
2018-05-27T12:38:16.906Z,41.36
2018-05-27T12:40:45.360Z,41.21
2018-05-27T12:43:13.721Z,41.50
2018-05-27T12:45:42.098Z,40.46
2018-05-27T12:48:10.471Z,40.75
2018-05-27T12:50:38.914Z,39.43
2018-05-27T12:53:07.306Z,38.88
2018-05-27T12:55:35.705Z,40.51
2018-05-27T12:58:04.093Z,40.05
2018-05-27T13:00:32.474Z,40.53
2018-05-27T13:03:00.861Z,41.04
2018-05-27T13:05:29.302Z,41.40
2018-05-27T13:07:57.677Z,41.07
2018-05-27T13:10:26.047Z,40.86
2018-05-27T13:12:54.467Z,40.84
2018-05-27T13:15:22.901Z,39.05
2018-05-27T13:17:51.278Z,39.27
2018-05-27T13:20:19.694Z,39.79
2018-05-27T13:22:48.109Z,40.32
2018-05-27T13:25:16.528Z,40.35
2018-05-27T13:27:45.094Z,39.02
2018-05-27T13:30:14.677Z,37.63
2018-05-27T13:32:43.057Z,37.45
2018-05-27T13:35:11.448Z,38.18
2018-05-27T13:37:39.828Z,38.13
2018-05-27T13:40:08.409Z,38.59
2018-05-27T13:42:36.778Z,38.98
2018-05-27T13:45:05.390Z,39.20
2018-05-27T13:47:33.942Z,39.04
2018-05-27T13:50:02.338Z,39.36
2018-05-27T13:52:30.775Z,39.86
2018-05-27T13:54:59.164Z,40.62
2018-05-27T13:57:27.629Z,40.53
2018-05-27T13:59:56.001Z,40.87
2018-05-27T14:02:24.383Z,39.84
2018-05-27T14:04:52.760Z,40.24
2018-05-27T14:07:21.130Z,38.94
2018-05-27T14:09:49.518Z,39.79
2018-05-27T14:12:17.894Z,39.45
2018-05-27T14:14:46.313Z,39.76
2018-05-27T14:17:14.709Z,40.17
2018-05-27T14:19:43.266Z,40.39
2018-05-27T14:22:11.641Z,41.45
2018-05-27T14:24:40.032Z,41.69
2018-05-27T14:27:08.406Z,42.07
2018-05-27T14:29:36.792Z,42.45
2018-05-27T14:32:05.184Z,42.53
2018-05-27T14:34:33.560Z,41.94
2018-05-27T14:37:01.985Z,41.52
2018-05-27T14:39:30.367Z,42.29
2018-05-27T14:41:58.752Z,42.13
2018-05-27T14:44:27.129Z,42.25
2018-05-27T14:46:55.509Z,42.55
2018-05-27T14:49:23.880Z,42.36
2018-05-27T14:51:52.259Z,42.40
2018-05-27T14:54:20.637Z,42.88
2018-05-27T14:56:49.044Z,42.94
2018-05-27T14:59:17.438Z,42.51
2018-05-27T15:01:45.858Z,42.67
2018-05-27T15:04:14.251Z,42.92
2018-05-27T15:06:42.832Z,42.34
2018-05-27T15:09:11.214Z,43.11
2018-05-27T15:11:39.597Z,42.83
2018-05-27T15:14:08.025Z,42.14
2018-05-27T15:16:36.432Z,42.12
2018-05-27T15:19:04.815Z,42.26
2018-05-27T15:21:33.197Z,42.98
2018-05-27T15:24:01.567Z,42.79
2018-05-27T15:26:29.938Z,42.73
2018-05-27T15:28:58.324Z,42.85
2018-05-27T15:31:26.705Z,42.23
2018-05-27T15:33:55.084Z,41.61
2018-05-27T15:36:23.466Z,42.09
2018-05-27T15:38:51.853Z,42.30
2018-05-27T15:41:20.240Z,42.08
2018-05-27T15:43:48.621Z,41.93
2018-05-27T15:46:17.021Z,42.08
2018-05-27T15:48:45.401Z,42.30
2018-05-27T15:51:13.775Z,42.11
2018-05-27T15:53:42.162Z,42.33
2018-05-27T15:56:10.611Z,42.18
2018-05-27T15:58:39.025Z,42.11
2018-05-27T16:01:07.409Z,42.35
2018-05-27T16:03:35.793Z,42.43
2018-05-27T16:06:04.235Z,43.07
2018-05-27T16:08:32.619Z,43.53
2018-05-27T16:11:01.001Z,43.58
2018-05-27T16:13:29.405Z,43.66
2018-05-27T16:15:57.790Z,43.89
2018-05-27T16:18:26.209Z,43.98
2018-05-27T16:20:54.594Z,43.87
2018-05-27T16:23:22.993Z,44.21
2018-05-27T16:25:51.401Z,44.52
2018-05-27T16:28:19.784Z,44.40
2018-05-27T16:30:48.153Z,44.48
2018-05-27T16:33:16.535Z,44.71
2018-05-27T16:35:44.917Z,44.69
2018-05-27T16:38:13.285Z,44.67
2018-05-27T16:40:41.720Z,45.16
2018-05-27T16:43:10.336Z,45.05
2018-05-27T16:45:38.738Z,45.32
2018-05-27T16:48:07.277Z,45.58
2018-05-27T16:50:35.665Z,45.26
2018-05-27T16:53:04.048Z,45.12
2018-05-27T16:55:32.473Z,44.73
2018-05-27T16:58:00.893Z,44.83
2018-05-27T17:00:29.305Z,44.47
2018-05-27T17:02:57.676Z,44.40
2018-05-27T17:05:26.066Z,43.96
2018-05-27T17:07:54.485Z,43.64
2018-05-27T17:10:22.905Z,42.83
2018-05-27T17:12:51.295Z,42.10
2018-05-27T17:15:19.880Z,42.39
2018-05-27T17:17:48.266Z,42.38
2018-05-27T17:20:16.669Z,42.13
2018-05-27T17:22:45.089Z,42.09
2018-05-27T17:25:16.639Z,42.06
2018-05-27T17:27:45.003Z,42.04
2018-05-27T17:30:16.277Z,41.72
2018-05-27T17:32:44.661Z,41.88
2018-05-27T17:35:14.079Z,41.72
2018-05-27T17:37:43.051Z,41.69
2018-05-27T17:40:12.690Z,41.59
2018-05-27T17:42:42.082Z,41.62
2018-05-27T17:45:10.460Z,41.73
2018-05-27T17:47:38.860Z,42.08
2018-05-27T17:50:07.434Z,42.28
2018-05-27T17:52:35.868Z,42.58
2018-05-27T17:55:03.723Z,42.92
2018-05-27T17:57:32.157Z,43.09
2018-05-27T18:00:00.734Z,43.23
2018-05-27T18:02:29.109Z,43.50
2018-05-27T18:04:57.482Z,43.49
2018-05-27T18:07:25.862Z,43.57
2018-05-27T18:09:54.294Z,43.64
2018-05-27T18:12:22.847Z,43.69
2018-05-27T18:14:51.229Z,43.97
2018-05-27T18:17:19.599Z,44.13
2018-05-27T18:19:47.978Z,44.43
2018-05-27T18:22:16.391Z,44.72
2018-05-27T18:24:44.965Z,45.06
2018-05-27T18:27:13.398Z,45.50
2018-05-27T18:29:41.766Z,45.69
2018-05-27T18:32:10.185Z,45.86
2018-05-27T18:34:38.565Z,46.14
2018-05-27T18:37:06.969Z,46.27
2018-05-27T18:39:35.357Z,46.45
2018-05-27T18:42:03.863Z,46.64
2018-05-27T18:44:32.249Z,46.71
2018-05-27T18:47:00.715Z,46.83
2018-05-27T18:49:29.097Z,47.09
2018-05-27T18:51:57.652Z,47.42
2018-05-27T18:54:26.691Z,47.77
2018-05-27T18:56:55.070Z,48.04
2018-05-27T18:59:23.445Z,48.86
2018-05-27T19:01:51.865Z,49.26
2018-05-27T19:04:20.279Z,49.54
2018-05-27T19:06:48.809Z,49.92
2018-05-27T19:09:17.195Z,50.44
2018-05-27T19:11:45.577Z,50.86
2018-05-27T19:14:13.959Z,51.32
2018-05-27T19:16:42.357Z,51.60
2018-05-27T19:19:10.728Z,51.87
2018-05-27T19:21:39.138Z,52.55
2018-05-27T19:24:07.532Z,52.72
2018-05-27T19:26:35.923Z,53.23
2018-05-27T19:29:04.340Z,53.66
2018-05-27T19:31:32.717Z,53.96
2018-05-27T19:34:02.081Z,54.04
2018-05-27T19:36:30.456Z,54.31
2018-05-27T19:38:58.853Z,54.65
2018-05-27T19:41:27.223Z,54.76
2018-05-27T19:43:55.616Z,54.97
2018-05-27T19:46:24.001Z,55.05
2018-05-27T19:48:52.382Z,55.25
2018-05-27T19:51:20.530Z,55.44
2018-05-27T19:53:48.896Z,55.71
2018-05-27T19:56:16.980Z,55.58
2018-05-27T19:58:45.395Z,55.73
2018-05-27T20:01:13.774Z,55.83
2018-05-27T20:03:42.161Z,56.25
2018-05-27T20:06:10.544Z,57.18
2018-05-27T20:08:39.018Z,57.59
2018-05-27T20:11:07.480Z,58.38
2018-05-27T20:13:35.855Z,58.63
2018-05-27T20:16:04.953Z,59.07
2018-05-27T20:18:33.343Z,59.18
2018-05-27T20:21:01.728Z,59.33
2018-05-27T20:23:30.127Z,59.86
2018-05-27T20:25:58.517Z,59.67
2018-05-27T20:28:26.918Z,59.91
2018-05-27T20:30:55.353Z,60.10
2018-05-27T20:33:23.771Z,60.13
2018-05-27T20:35:52.153Z,60.32
2018-05-27T20:38:20.528Z,60.71
2018-05-27T20:40:48.959Z,60.76
2018-05-27T20:43:17.665Z,61.41
2018-05-27T20:45:46.092Z,61.62
2018-05-27T20:48:14.226Z,61.43
2018-05-27T20:50:42.620Z,61.71
2018-05-27T20:53:11.033Z,62.12
2018-05-27T20:55:39.481Z,62.67
2018-05-27T20:58:07.902Z,62.65
2018-05-27T21:00:36.153Z,62.85
2018-05-27T21:03:03.966Z,62.99
2018-05-27T21:05:32.353Z,62.73
2018-05-27T21:08:00.758Z,62.76
2018-05-27T21:10:29.237Z,62.69
2018-05-27T21:12:57.708Z,62.87
2018-05-27T21:15:26.112Z,63.13
2018-05-27T21:17:54.508Z,63.15
2018-05-27T21:20:23.685Z,63.38
2018-05-27T21:22:52.060Z,63.27
2018-05-27T21:25:22.176Z,63.06
2018-05-27T21:27:50.593Z,63.04
2018-05-27T21:30:20.037Z,63.04
2018-05-27T21:32:48.474Z,63.54
2018-05-27T21:35:17.595Z,64.18
2018-05-27T21:37:46.002Z,64.32
2018-05-27T21:40:15.070Z,65.01
2018-05-27T21:42:43.498Z,65.53
2018-05-27T21:45:13.005Z,65.57
2018-05-27T21:47:41.389Z,65.38
2018-05-27T21:50:13.165Z,65.79
2018-05-27T21:52:42.003Z,65.85
2018-05-27T21:55:11.468Z,66.12
2018-05-27T21:57:39.888Z,66.73
2018-05-27T22:00:08.090Z,67.22
2018-05-27T22:02:36.513Z,67.69
2018-05-27T22:05:04.694Z,68.19
2018-05-27T22:07:33.095Z,68.31
2018-05-27T22:10:01.510Z,68.25
2018-05-27T22:12:29.920Z,68.19
2018-05-27T22:14:58.321Z,68.22
2018-05-27T22:17:26.726Z,68.27
2018-05-27T22:19:55.123Z,68.33
2018-05-27T22:22:23.501Z,68.30
2018-05-27T22:24:51.893Z,68.47
2018-05-27T22:27:20.338Z,68.45
2018-05-27T22:29:48.801Z,68.53
2018-05-27T22:32:17.190Z,68.63
2018-05-27T22:34:45.609Z,69.01
2018-05-27T22:37:13.987Z,69.42
2018-05-27T22:39:42.366Z,69.47
2018-05-27T22:42:10.783Z,69.30
2018-05-27T22:44:39.292Z,69.04
2018-05-27T22:47:07.693Z,68.94
2018-05-27T22:49:36.232Z,69.30
2018-05-27T22:52:04.645Z,69.50
2018-05-27T22:54:33.050Z,69.85
2018-05-27T22:57:01.441Z,70.02
2018-05-27T22:59:30.129Z,69.99
2018-05-27T23:01:58.556Z,69.94
2018-05-27T23:04:26.955Z,69.99
2018-05-27T23:06:55.349Z,70.37
2018-05-27T23:09:23.771Z,70.61
2018-05-27T23:11:52.211Z,71.17
2018-05-27T23:14:20.623Z,71.58
2018-05-27T23:16:49.023Z,71.87
2018-05-27T23:19:17.427Z,71.91
2018-05-27T23:21:45.835Z,71.62
2018-05-27T23:24:14.206Z,71.85
2018-05-27T23:26:42.621Z,72.11
2018-05-27T23:29:10.720Z,72.04
2018-05-27T23:31:39.108Z,72.02
2018-05-27T23:34:07.723Z,72.18
2018-05-27T23:36:36.110Z,72.30
2018-05-27T23:39:03.694Z,72.55
2018-05-27T23:41:32.078Z,72.74
2018-05-27T23:44:00.537Z,73.07
2018-05-27T23:46:28.935Z,72.98
2018-05-27T23:48:57.313Z,72.96
2018-05-27T23:51:25.717Z,73.33
2018-05-27T23:53:54.094Z,73.62
2018-05-27T23:56:22.508Z,73.43
2018-05-27T23:58:51.065Z,73.14
